This is the latest recevied weather packets stored in our database for station/object DG5MNJ. If no packets are shown the sender has not sent any weather packets the latest 10 day(s).
| Time | Temp. | Humidity | Pressure | Rain* | Wind** | Luminosity | Snow |
|---|---|---|---|---|---|---|---|
| 1777620022 | 10.56° C | 40% | 1025 hPa | 0 mm | - | 540 W/m² | - |
| 1777617902 | 8.89° C | 42% | 1025 hPa | 0 mm | - | 441 W/m² | - |
| 1777611622 | 5° C | 54% | 1024.6 hPa | 0 mm | - | 116 W/m² | - |
| 1777611002 | 5° C | 55% | 1024.4 hPa | 0 mm | - | 91 W/m² | - |
| 1777610702 | 4.44° C | 55% | 1024.4 hPa | 0 mm | - | 78 W/m² | - |
| 1777609203 | 4.44° C | 56% | 1024.2 hPa | 0 mm | - | 25 W/m² | - |
| 1777605902 | 4.44° C | 55% | 1023.9 hPa | 0 mm | - | 0 W/m² | - |
| 1777603502 | 4.44° C | 55% | 1024.1 hPa | 0 mm | - | 0 W/m² | - |
| 1777600202 | 5° C | 54% | 1024.2 hPa | 0 mm | - | 0 W/m² | - |
| 1777598702 | 5.56° C | 49% | 1024.2 hPa | 0 mm | - | 0 W/m² | - |
| 1777597802 | 6.67° C | 46% | 1024.2 hPa | 0 mm | - | 0 W/m² | - |
| 1777595402 | 6.67° C | 44% | 1024.1 hPa | 0 mm | - | 0 W/m² | - |
| 1777592702 | 6.11° C | 48% | 1024.3 hPa | 0 mm | - | 0 W/m² | - |
| 1777590902 | 6.11° C | 48% | 1024.4 hPa | 0 mm | - | 0 W/m² | - |
| 1777589403 | 6.11° C | 48% | 1024.4 hPa | 0 mm | - | 0 W/m² | - |
| 1777589102 | 6.67° C | 47% | 1024.3 hPa | 0 mm | - | 0 W/m² | - |
| 1777588802 | 6.67° C | 46% | 1024.6 hPa | 0 mm | - | 0 W/m² | - |
| 1777586402 | 7.78° C | 44% | 1024.7 hPa | 0 mm | - | 0 W/m² | - |
| 1777583702 | 7.78° C | 43% | 1024.4 hPa | 0 mm | - | 0 W/m² | - |
| 1777581902 | 7.78° C | 43% | 1024.8 hPa | 0 mm | - | 0 W/m² | - |
| 1777581302 | 7.78° C | 43% | 1024.8 hPa | 0 mm | - | 0 W/m² | - |
| 1777580402 | 7.78° C | 42% | 1024.8 hPa | 0 mm | - | 0 W/m² | - |
| 1777580122 | 8.33° C | 42% | 1024.7 hPa | 0 mm | - | 0 W/m² | - |
| 1777578302 | 8.89° C | 39% | 1024.6 hPa | 0 mm | - | 0 W/m² | - |
| 1777577702 | 9.44° C | 38% | 1024.6 hPa | 0 mm | - | 0 W/m² | - |
* Rain latest hour (hover to see other rain measurements)
** Current wind speed in m/s (hover to see current wind gust speed)